Flight Track Log - Related Links

Times and Time Zones

All times are in EDT time to prevent confusion due to time zone crossing. See the UAL4457 flight status page for this flight to view local times or setup timezone preferences in your user account.

Time Position Orientation Groundspeed Altitude Reporting Facility
EDT Latitude Longitude Course Direction KTS MPH feet Rate Location/Type
Sat 02:57:25 PM 29.9767 -95.3008 35° Northeast 144 166 900  Level Houston Center
Sat 02:58:18 PM 30.0092 -95.2733 36° Northeast 234 269 2,400 2,035 Climbing Houston Center
Sat 02:59:20 PM 30.0736 -95.2472 19° North 241 277 4,800 2,516 Climbing Houston Center
Sat 03:00:00 PM 30.2998 -95.0787 32° Northeast  Level FlightAware Approximate
Sat 03:00:22 PM 30.1400 -95.2014 31° Northeast 274 315 7,600  Level Houston Center
Sat 03:01:00 PM 30.4061 -94.9939 41° Northeast  Level FlightAware Approximate
Sat 03:01:24 PM 30.2197 -95.1411 33° Northeast 285 328 10,200  Level Houston Center
Sat 03:02:00 PM 30.5114 -94.9142 35° Northeast  Level FlightAware Approximate
Sat 03:02:26 PM 30.3003 -95.0811 33° Northeast 341 392 11,100  Level Houston Center
Sat 03:03:28 PM 30.3869 -95.0164 33° Northeast 365 420 12,700 1,500 Climbing Houston Center
Sat 03:04:30 PM 30.4744 -94.9514 33° Northeast 382 440 14,200 1,548 Climbing Houston Center
Sat 03:05:32 PM 30.5664 -94.8825 33° Northeast 391 450 15,900 1,561 Climbing Houston Center
Sat 03:06:33 PM 30.6775 -94.7969 34° Northeast 400 460 17,400 1,415 Climbing Houston Center
Sat 03:07:35 PM 30.7711 -94.7242 34° Northeast 404 465 18,800 1,355 Climbing Houston Center
Sat 03:08:37 PM 30.8675 -94.6500 33° Northeast 415 478 20,200 1,436 Climbing Houston Center
Sat 03:09:32 PM 30.9622 -94.5767 34° Northeast 410 472 21,600 1,461 Climbing Fort Worth Center
Sat 03:10:32 PM 31.0628 -94.4961 34° Northeast 415 478 23,000 1,300 Climbing Fort Worth Center
Sat 03:11:32 PM 31.1511 -94.4303 33° Northeast 420 483 24,200 1,400 Climbing Fort Worth Center
Sat 03:12:32 PM 31.2678 -94.3389 34° Northeast 438 504 25,800 1,400 Climbing Fort Worth Center
Sat 03:13:32 PM 31.3722 -94.2578 34° Northeast 438 504 27,000 600 Climbing Fort Worth Center
Sat 03:14:32 PM 31.4786 -94.1736 34° Northeast 451 519 27,000  Level Fort Worth Center
Sat 03:15:32 PM 31.5933 -94.0867 33° Northeast 464 534 27,000 500 Level Fort Worth Center
Sat 03:16:32 PM 31.6914 -94.0075 34° Northeast 475 547 28,000 1,500 Climbing Fort Worth Center
Sat 03:17:32 PM 31.8017 -93.9228 33° Northeast 475 547 30,000 1,500 Climbing Fort Worth Center
Sat 03:18:32 PM 31.9203 -93.8303 33° Northeast 470 541 31,000 500 Climbing Fort Worth Center
Sat 03:19:32 PM 32.0344 -93.7375 35° Northeast 482 555 31,000 250 Level Fort Worth Center
Sat 03:20:32 PM 32.1386 -93.6547 34° Northeast 487 560 31,500 800 Climbing Fort Worth Center
Sat 03:21:32 PM 32.2564 -93.5517 36° Northeast 503 579 32,600 1,050 Climbing Fort Worth Center
Sat 03:22:32 PM 32.3747 -93.4606 33° Northeast 503 579 33,600 1,000 Climbing Fort Worth Center
Sat 03:23:32 PM 32.4906 -93.3644 35° Northeast 503 579 34,600 700 Climbing Fort Worth Center
Sat 03:24:32 PM 32.6086 -93.2703 34° Northeast 503 579 35,000 200 Climbing Fort Worth Center
Sat 03:25:32 PM 32.7286 -93.1733 34° Northeast 503 579 35,000  Level Fort Worth Center
Sat 03:26:32 PM 32.8503 -93.0736 35° Northeast 514 592 35,000  Level Fort Worth Center
Sat 03:27:32 PM 32.9722 -92.9764 34° Northeast 520 598 35,000  Level Fort Worth Center
Sat 03:28:32 PM 33.0919 -92.8786 34° Northeast 520 598 35,000  Level Fort Worth Center
Sat 03:29:32 PM 33.2094 -92.7833 34° Northeast 514 592 35,000  Level Fort Worth Center
Sat 03:31:08 PM 33.3539 -92.5706 51° Northeast 515 593 35,000  Level Memphis Center
Sat 03:32:08 PM 33.4294 -92.4233 58° Northeast 515 593 35,000  Level Memphis Center
Sat 03:33:08 PM 33.5047 -92.2756 59° Northeast 515 593 35,000  Level Memphis Center
Sat 03:34:08 PM 33.5800 -92.1275 59° Northeast 515 593 35,000  Level Memphis Center
Sat 03:35:09 PM 33.6531 -91.9794 59° Northeast 510 587 35,000  Level Memphis Center
Sat 03:36:08 PM 33.7300 -91.8308 58° Northeast 510 587 35,000  Level Memphis Center
Sat 03:37:08 PM 33.8006 -91.6819 60° Northeast 510 587 35,000  Level Memphis Center
Sat 03:38:08 PM 33.8814 -91.5181 59° Northeast 510 587 35,000  Level Memphis Center
Sat 03:39:08 PM 33.9578 -91.3689 58° Northeast 515 593 35,000  Level Memphis Center
Sat 03:40:08 PM 34.0319 -91.2194 59° Northeast 515 593 35,000  Level Memphis Center
Sat 03:41:08 PM 34.1061 -91.0669 60° Northeast 515 593 35,000  Level Memphis Center
Sat 03:42:08 PM 34.1819 -90.9172 58° Northeast 515 593 35,000  Level Memphis Center
Sat 03:43:08 PM 34.2556 -90.7667 59° Northeast 515 593 35,000  Level Memphis Center
Sat 03:44:08 PM 34.3289 -90.6136 60° Northeast 515 593 35,000  Level Memphis Center
Sat 03:45:09 PM 34.4044 -90.4603 59° Northeast 515 593 35,000  Level Memphis Center
Sat 03:46:08 PM 34.4775 -90.3092 60° Northeast 520 598 35,000  Level Memphis Center
Sat 03:47:08 PM 34.5503 -90.1553 60° Northeast 525 604 35,000  Level Memphis Center
Sat 03:48:08 PM 34.6167 -90.0214 59° Northeast 525 604 35,000  Level Memphis Center
Sat 03:49:08 PM 34.6892 -89.8644 61° Northeast 525 604 35,000  Level Memphis Center
Sat 03:50:08 PM 34.7678 -89.6922 61° Northeast 525 604 35,000  Level Memphis Center
Sat 03:51:08 PM 34.8461 -89.5322 59° Northeast 541 623 35,000  Level Memphis Center
Sat 03:52:08 PM 34.9181 -89.3819 60° Northeast 536 617 35,000  Level Memphis Center
Sat 03:53:08 PM 34.9897 -89.2267 61° Northeast 527 606 35,000  Level Memphis Center
Sat 03:54:08 PM 35.0572 -89.0886 59° Northeast 527 606 35,000  Level Memphis Center
Sat 03:55:08 PM 35.1283 -88.9328 61° Northeast 521 600 35,000  Level Memphis Center
Sat 03:56:08 PM 35.1997 -88.7792 60° Northeast 526 605 35,000  Level Memphis Center
Sat 03:57:08 PM 35.2706 -88.6200 61° Northeast 526 605 35,000  Level Memphis Center
Sat 03:58:08 PM 35.3353 -88.4811 60° Northeast 526 605 35,000  Level Memphis Center
Sat 03:59:08 PM 35.4219 -88.2933 60° Northeast 526 605 35,000  Level Memphis Center
Sat 04:00:08 PM 35.4903 -88.1386 61° Northeast 526 605 35,000 -250 Level Memphis Center
Sat 04:01:08 PM 35.5625 -87.9861 60° Northeast 519 597 34,500 -793 Descending Memphis Center
Sat 04:02:09 PM 35.6344 -87.8256 61° Northeast 524 603 33,400 -750 Descending Memphis Center
Sat 04:03:08 PM 35.7103 -87.6700 59° Northeast 529 609 33,000 -202 Descending Memphis Center
Sat 04:04:08 PM 35.8031 -87.5236 52° Northeast 538 619 33,000  Level Memphis Center
Sat 04:05:08 PM 35.8914 -87.3822 52° Northeast 533 613 33,000  Level Memphis Center
Sat 04:06:08 PM 35.9694 -87.2511 54° Northeast 528 608 33,000  Level Memphis Center
Sat 04:07:08 PM 36.0575 -87.1092 52° Northeast 520 598 33,000  Level Memphis Center
Sat 04:08:08 PM 36.1456 -86.9642 53° Northeast 520 598 33,000  Level Memphis Center
Sat 04:09:08 PM 36.2353 -86.8192 52° Northeast 520 598 33,000  Level Memphis Center
Sat 04:10:08 PM 36.3347 -86.6550 53° Northeast 525 604 33,000 -250 Level Memphis Center
Sat 04:11:08 PM 36.4222 -86.5142 52° Northeast 518 596 32,500 -700 Descending Memphis Center
Sat 04:12:08 PM 36.5111 -86.3656 53° Northeast 526 605 31,600 -850 Descending Memphis Center
Sat 04:13:08 PM 36.5903 -86.2350 53° Northeast 526 605 30,800 -923 Descending Memphis Center
Sat 04:15:36 PM 36.8044 -85.8764 53° Northeast 521 600 28,400 -971 Descending Indianapolis Center
Sat 04:16:38 PM 36.8897 -85.7314 54° Northeast 514 592 27,400 -976 Descending Indianapolis Center
Sat 04:17:39 PM 36.9772 -85.5847 53° Northeast 519 597 26,400 -1,024 Descending Indianapolis Center
Sat 04:18:41 PM 37.0789 -85.4194 52° Northeast 523 602 25,300 -1,210 Descending Indianapolis Center
Sat 04:19:43 PM 37.1875 -85.3025 41° Northeast 514 592 23,900 -1,415 Descending Indianapolis Center
Sat 04:20:44 PM 37.2925 -85.1917 40° Northeast 494 568 22,400 -1,463 Descending Indianapolis Center
Sat 04:21:46 PM 37.3939 -85.0836 40° Northeast 479 551 20,900 -1,756 Descending Indianapolis Center
Sat 04:22:47 PM 37.4914 -84.9817 40° Northeast 455 524 18,800 -2,634 Descending Indianapolis Center
Sat 04:23:49 PM 37.5803 -84.8861 40° Northeast 421 484 15,500 -3,122 Descending Indianapolis Center
Sat 04:24:50 PM 37.6642 -84.7956 41° Northeast 401 461 12,400 -2,488 Descending Indianapolis Center
Sat 04:25:52 PM 37.7342 -84.7111 44° Northeast 351 404 10,400 -2,419 Descending Indianapolis Center
Sat 04:26:54 PM 37.8047 -84.6247 44° Northeast 310 357 7,400 -2,195 Descending Indianapolis Center
Sat 04:27:55 PM 37.8631 -84.5511 45° Northeast 300 345 5,900 -1,220 Descending Indianapolis Center
Sat 04:28:57 PM 37.9211 -84.5039 33° Northeast 273 314 4,900 -976 Descending Indianapolis Center
Sat 04:29:58 PM 37.9850 -84.4731 21° North 249 287 3,900 -878 Descending Indianapolis Center
Sat 04:31:00 PM 38.0511 -84.4642 North 247 284 3,100 -774 Descending Indianapolis Center

Login

Don't have an account? Register now (free) for customized features, flight alerts, and more!